WetterOnline ( https://www.wetteronline.de )

Wetter aktuell Berlingen

Aktuelles Wetter: Nürburg-Barweiler (488m)

6-stündlich | Neueste Meldungen
Ortszeit Temperatur Wetter
Mo, 30.11. 7:00 -5.2° C wolkenlos
Mo, 30.11. 1:00 -4.9° C wolkenlos
So, 29.11. 19:00 -3.4° C leicht bewölkt
So, 29.11. 13:00 -2.2° C bedeckt
So, 29.11. 7:00 -2.0° C bedeckt
So, 29.11. 1:00 -1.6° C Nebel
Sa, 28.11. 19:00 3.2° C wolkenlos
Sa, 28.11. 13:00 9.4° C wolkenlos
Ortszeit Temperatur Wetter
Mo, 30.11. 12:10 0.6° C bedeckt
Mo, 30.11. 12:00 0.7° C wolkig
Mo, 30.11. 11:50 0.7° C bedeckt
Mo, 30.11. 11:40 0.8° C bewölkt
Mo, 30.11. 11:30 -0.0° C leicht bewölkt
Mo, 30.11. 11:20 -0.0° C leicht bewölkt
Mo, 30.11. 11:00 -0.8° C wolkenlos
Mo, 30.11. 10:30 -1.7° C wolkenlos
Mo, 30.11. 10:00 -2.2° C wolkenlos
Mo, 30.11. 9:30 -3.1° C wolkenlos
Mo, 30.11. 9:00 -3.5° C wolkenlos
Ortszeit Relative Feuchte Sichtweite
Mo, 30.11. 7:00 93% 13 km
Mo, 30.11. 1:00 91% 10 km
So, 29.11. 19:00 87% 15 km
So, 29.11. 13:00 86% 14 km
So, 29.11. 7:00 96% 6 km
So, 29.11. 1:00 98% <100 m
Sa, 28.11. 19:00 79% 45 km
Sa, 28.11. 13:00 54% >70 km
Ortszeit Relative Feuchte Sichtweite
Mo, 30.11. 12:10 76% -
Mo, 30.11. 12:00 75% 20 km
Mo, 30.11. 11:50 75% -
Mo, 30.11. 11:40 75% -
Mo, 30.11. 11:30 78% 16 km
Mo, 30.11. 11:20 78% -
Mo, 30.11. 11:00 79% 15 km
Mo, 30.11. 10:30 82% 14 km
Mo, 30.11. 10:00 83% 13 km
Mo, 30.11. 9:30 85% 12 km
Mo, 30.11. 9:00 89% 13 km
Ortszeit Niederschlagsmenge Niederschlagsart
Mo, 30.11. 7:00 0.0 l/m2 in 12 Std. -
Mo, 30.11. 1:00 0.0 l/m2 in 6 Std. -
So, 29.11. 19:00 0.0 l/m2 in 12 Std. -
So, 29.11. 13:00 0.0 l/m2 in 6 Std. -
So, 29.11. 7:00 0.0 l/m2 in 12 Std. -
So, 29.11. 1:00 0.0 l/m2 in 6 Std. -
Sa, 28.11. 19:00 0.0 l/m2 in 12 Std. -
Sa, 28.11. 13:00 0.0 l/m2 in 6 Std. -
Ortszeit Niederschlagsmenge Niederschlagsart
Mo, 30.11. 12:10 keine Meldung -
Mo, 30.11. 12:00 0.0 l/m2 in 1 Std. -
Mo, 30.11. 11:50 keine Meldung -
Mo, 30.11. 11:40 keine Meldung -
Mo, 30.11. 11:30 0.0 l/m2 in 1 Std. -
Mo, 30.11. 11:20 keine Meldung -
Mo, 30.11. 11:00 0.0 l/m2 in 1 Std. -
Mo, 30.11. 10:30 0.0 l/m2 in 1 Std. -
Mo, 30.11. 10:00 0.0 l/m2 in 1 Std. -
Mo, 30.11. 9:30 0.0 l/m2 in 1 Std. -
Mo, 30.11. 9:00 0.0 l/m2 in 1 Std. -
Ortszeit Stärke Spitze Richtung
km/h Bft. km/h Grad Sektor
Mo, 30.11. 7:00 7 2 14 190° S
Mo, 30.11. 1:00 7 2 11 170° S
So, 29.11. 19:00 4 1 22 120° SO
So, 29.11. 13:00 11 2 25 100° O
So, 29.11. 7:00 7 2 25 110° O
So, 29.11. 1:00 4 1 7 20° N
Sa, 28.11. 19:00 2 1 15 100° O
Sa, 28.11. 13:00 7 2 11 60° NO
Ortszeit Stärke Spitze Richtung
km/h Bft. km/h Grad Sektor
Mo, 30.11. 12:10 11 2 - 250° W
Mo, 30.11. 12:00 11 2 22 220° SW
Mo, 30.11. 11:50 11 2 - 220° SW
Mo, 30.11. 11:40 9 2 - 220° SW
Mo, 30.11. 11:30 11 2 20 230° SW
Mo, 30.11. 11:20 11 2 - 230° SW
Mo, 30.11. 11:00 13 3 20 200° S
Mo, 30.11. 10:30 11 2 18 220° SW
Mo, 30.11. 10:00 7 2 14 210° SW
Mo, 30.11. 9:30 9 2 15 210° SW
Mo, 30.11. 9:00 9 2 15 200° S
Ortszeit Untergrenze Bedeckung Gattung
total tief tief mittel hoch
Mo, 30.11. 7:00 - 0/8 0/8 - - -
Mo, 30.11. 1:00 - 0/8 0/8 - - -
So, 29.11. 19:00 240 m 4/8 4/8 - - -
So, 29.11. 13:00 210 m 8/8 8/8 - - -
So, 29.11. 7:00 120 m 8/8 8/8 - - -
So, 29.11. 1:00 <30 m 8/8 0/8 - - -
Sa, 28.11. 19:00 9000 m 0/8 0/8 - - -
Sa, 28.11. 13:00 - 0/8 0/8 - - -
Ortszeit Bedeckungsgrad in Achtel und Wolkenuntergrenze
Mo, 30.11. 12:10 8(2400m)
Mo, 30.11. 12:00 8(2700m)
Mo, 30.11. 11:50 8(2700m)
Mo, 30.11. 11:40 7(2700m)
Mo, 30.11. 11:30 3(2700m)
Mo, 30.11. 11:20 3(2700m)
Mo, 30.11. 11:00 keine Wolken
Mo, 30.11. 10:30 keine Wolken
Mo, 30.11. 10:00 keine Wolken
Mo, 30.11. 9:30 keine Wolken
Mo, 30.11. 9:00 keine Wolken
Ortszeit Luftdruck NN (hPa) Tendenz (hPa in 3 Std.)
Mo, 30.11. 7:00 1028 + 0,2
Mo, 30.11. 1:00 1028 - 0,1
So, 29.11. 19:00 1028 + 1,1
So, 29.11. 13:00 1026 - 0,3
So, 29.11. 7:00 1025 + 0,3
So, 29.11. 1:00 1024 + 0,3
Sa, 28.11. 19:00 1021 + 0,6
Sa, 28.11. 13:00 1019 - 0,1
Ortszeit Luftdruck NN (hPa) Tendenz (hPa in 3 Std.)
Mo, 30.11. 12:10 1026 keine Meldung
Mo, 30.11. 12:00 1026 - 0,7
Mo, 30.11. 11:50 1026 keine Meldung
Mo, 30.11. 11:40 1026 keine Meldung
Mo, 30.11. 11:30 1027 - 0,3
Mo, 30.11. 11:20 1027 keine Meldung
Mo, 30.11. 11:00 1027 0,0
Mo, 30.11. 10:30 1028 + 0,2
Mo, 30.11. 10:00 1028 0,0
Mo, 30.11. 9:30 1028 - 0,2
Mo, 30.11. 9:00 1028 - 0,1
Ortszeit Schneehöhe (cm)
Mo, 30.11. 7:00 0
Mo, 30.11. 1:00 0
So, 29.11. 19:00 0
So, 29.11. 13:00 0
So, 29.11. 7:00 0
So, 29.11. 1:00 0
Sa, 28.11. 19:00 0
Sa, 28.11. 13:00 0
Ortszeit Schneehöhe (cm)
Mo, 30.11. 12:10 0
Mo, 30.11. 12:00 0
Mo, 30.11. 11:50 0
Mo, 30.11. 11:40 0
Mo, 30.11. 11:30 0
Mo, 30.11. 11:20 0
Mo, 30.11. 11:00 0
Mo, 30.11. 10:30 0
Mo, 30.11. 10:00 0
Mo, 30.11. 9:30 0
Mo, 30.11. 9:00 0
Link zu dieser Seite / Seite empfehlen

Das Wetter in ...